942  
SXUS55 KMSO 220913  
OSOMSO  
MONTANA AWOS SUMMARY  
NATIONAL WEATHER SERVICE MISSOULA MT  
313 AM MDT SUN OCT 22 2017  
 
MONTANA AWOS REPORTS  
 
TWIN BRIDGES|K7S1 220855Z AUTO 13004KT 40SM 09/M04 A3000 RMK AO1 T00941038  
PLAINS |KS34 220855Z AUTO 00000KT 10SM 07/03 A2981 RMK AO1 T00670033  
ROUNDUP |KRPX 220855Z AUTO 00000KT 40SM 03/M08 A2977 RMK AO1 T00331077  
 
CLICK HERE TO GO TO PREVIOUS BULLETINS.

The Nexlab MT Page
The Nexlab ID Page Main Text Page